Time;durP1;ratioP1;P1;durP2;ratioP2;P2;SDS_P1;SDS_P2;PMS_P1;PMS_P2;Temp;Humidity;BMP_temperature;BMP_pressure;BME280_temperature;BME280_humidity;BME280_pressure;Samples;Min_cycle;Max_cycle;Signal;HPM_P1;HPM_P2
2022/04/26 03:37:05;;;;;;;;;;;;;;;;;;5095168;28;20367;-65
2022/04/26 03:39:31;;;;;;;;;;;;;;;;;;5076131;28;19908;-66
2022/04/26 03:41:57;;;;;;;;;;;;;;;;;;5076531;28;19908;-66
2022/04/26 03:44:22;;;;;;;;;;;;;;;;;;5076277;28;20065;-65
2022/04/26 03:46:48;;;;;;;;;;;;;;;;;;5076418;28;19908;-68
2022/04/26 03:49:14;;;;;;;;;;;;;;;;;;5075763;28;20356;-68
2022/04/26 03:51:41;;;;;;;;;;;;;;;;;;5076413;28;19915;-68
2022/04/26 03:54:07;;;;;;;;;;;;;;;;;;5076065;28;19997;-68
2022/04/26 03:56:33;;;;;;;;;;;;;;;;;;5076342;28;19991;-68
2022/04/26 03:58:58;;;;;;;;;;;;;;;;;;5075670;28;19912;-67
2022/04/26 04:01:24;;;;;;;;;;;;;;;;;;5076202;28;19908;-67
2022/04/26 04:03:50;;;;;;;;;;;;;;;;;;5075996;28;19958;-68
2022/04/26 04:06:16;;;;;;;;;;;;;;;;;;5076248;28;20360;-68
2022/04/26 04:08:42;;;;;;;;;;;;;;;;;;5075727;28;19958;-68
2022/04/26 04:11:08;;;;;;;;;;;;;;;;;;5076060;28;20252;-68
2022/04/26 04:13:34;;;;;;;;;;;;;;;;;;5075774;28;19904;-69
2022/04/26 04:16:00;;;;;;;;;;;;;;;;;;5075444;28;19917;-69
2022/04/26 04:21:10;;;;;;;;;;;;;;;;;;5094289;28;20325;-69
2022/04/26 04:23:36;;;;;;;;;;;;;;;;;;5075668;28;20011;-69
2022/04/26 04:26:02;;;;;;;;;;;;;;;;;;5075940;28;19908;-70
2022/04/26 04:28:28;;;;;;;;;;;;;;;;;;5075405;28;19912;-69
2022/04/26 04:30:54;;;;;;;;;;;;;;;;;;5075733;28;19916;-69
2022/04/26 04:33:20;;;;;;;;;;;;;;;;;;5075686;28;19912;-69
2022/04/26 04:35:46;;;;;;;;;;;;;;;;;;5075748;28;19908;-70
2022/04/26 04:38:12;;;;;;;;;;;;;;;;;;5072980;28;19923;-69
2022/04/26 04:40:37;;;;;;;;;;;;;;;;;;5087442;28;20253;-69
2022/04/26 04:43:04;;;;;;;;;;;;;;;;;;5075439;28;19912;-69
2022/04/26 04:45:30;;;;;;;;;;;;;;;;;;5075230;28;20387;-68
2022/04/26 04:47:56;;;;;;;;;;;;;;;;;;5078196;28;19912;-69
2022/04/26 04:50:22;;;;;;;;;;;;;;;;;;5075766;28;19965;-69
2022/04/26 04:52:47;;;;;;;;;;;;;;;;;;5075627;28;20245;-69
2022/04/26 04:55:13;;;;;;;;;;;;;;;;;;5075360;28;19946;-66
2022/04/26 04:57:39;;;;;;;;;;;;;;;;;;5075537;28;20015;-67
2022/04/26 05:00:05;;;;;;;;;;;;;;;;;;5074845;28;19908;-67
2022/04/26 05:02:31;;;;;;;;;;;;;;;;;;5075460;28;19914;-68
2022/04/26 05:04:57;;;;;;;;;;;;;;;;;;5075217;28;19911;-67
2022/04/26 05:07:23;;;;;;;;;;;;;;;;;;5075526;28;19954;-67
2022/04/26 05:09:49;;;;;;;;;;;;;;;;;;5075040;28;19948;-67
2022/04/26 05:12:15;;;;;;;;;;;;;;;;;;5075246;28;19912;-69
2022/04/26 05:14:41;;;;;;;;;;;;;;;;;;5075204;28;19961;-70
2022/04/26 05:17:07;;;;;;;;;;;;;;;;;;5075296;28;19916;-69
2022/04/26 05:19:33;;;;;;;;;;;;;;;;;;5074824;28;19923;-68
2022/04/26 05:21:59;;;;;;;;;;;;;;;;;;5075561;28;20364;-69
2022/04/26 05:25:07;;;;;;;;;;;;;;;;;;5093837;28;19918;-68
2022/04/26 05:27:14;;;;;;;;;;;;;;;;;;5093153;28;20413;-69
2022/04/26 05:29:41;;;;;;;;;;;;;;;;;;5077226;28;19973;-68
2022/04/26 05:32:07;;;;;;;;;;;;;;;;;;5098532;28;19918;-70
2022/04/26 05:34:33;;;;;;;;;;;;;;;;;;5094261;28;19912;-69
2022/04/26 05:36:59;;;;;;;;;;;;;;;;;;5078792;28;20241;-70
2022/04/26 05:39:25;;;;;;;;;;;;;;;;;;5078308;28;19916;-68
2022/04/26 05:41:50;;;;;;;;;;;;;;;;;;5078865;28;20342;-68
2022/04/26 05:44:16;;;;;;;;;;;;;;;;;;5078486;28;19908;-68
2022/04/26 05:46:42;;;;;;;;;;;;;;;;;;5078614;28;19967;-68
2022/04/26 05:49:08;;;;;;;;;;;;;;;;;;5096367;28;19908;-68
2022/04/26 05:51:34;;;;;;;;;;;;;;;;;;5078638;28;20420;-68
2022/04/26 05:54:00;;;;;;;;;;;;;;;;;;5092982;28;19912;-68
2022/04/26 05:56:26;;;;;;;;;;;;;;;;;;5098849;28;19914;-70
2022/04/26 05:58:52;;;;;;;;;;;;;;;;;;5086264;28;20348;-68
2022/04/26 06:01:18;;;;;;;;;;;;;;;;;;5086702;28;19915;-67
2022/04/26 06:03:43;;;;;;;;;;;;;;;;;;5095314;28;20091;-69
2022/04/26 06:06:09;;;;;;;;;;;;;;;;;;5069111;28;19909;-68
2022/04/26 06:08:35;;;;;;;;;;;;;;;;;;5076962;28;19912;-69
2022/04/26 06:11:01;;;;;;;;;;;;;;;;;;5078199;28;19915;-70
2022/04/26 06:13:27;;;;;;;;;;;;;;;;;;5075903;28;19923;-69
2022/04/26 06:15:53;;;;;;;;;;;;;;;;;;5070842;28;19957;-69
2022/04/26 06:18:19;;;;;;;;;;;;;;;;;;5070241;28;19924;-72
2022/04/26 06:20:45;;;;;;;;;;;;;;;;;;5077678;28;19908;-70
2022/04/26 06:23:11;;;;;;;;;;;;;;;;;;5070276;28;19912;-70
2022/04/26 06:25:38;;;;;;;;;;;;;;;;;;5077697;28;19909;-68
2022/04/26 06:28:05;;;;;;;;;;;;;;;;;;5077992;28;20369;-68
2022/04/26 06:30:31;;;;;;;;;;;;;;;;;;5077360;28;19916;-68
2022/04/26 06:32:57;;;;;;;;;;;;;;;;;;5089441;28;19981;-68
2022/04/26 06:35:23;;;;;;;;;;;;;;;;;;5074485;28;19908;-67
2022/04/26 06:37:49;;;;;;;;;;;;;;;;;;5072596;28;19924;-67
2022/04/26 06:40:15;;;;;;;;;;;;;;;;;;5072457;28;20352;-67
2022/04/26 06:42:41;;;;;;;;;;;;;;;;;;5093662;28;19955;-69
2022/04/26 06:45:07;;;;;;;;;;;;;;;;;;5074727;28;19912;-69
2022/04/26 06:47:33;;;;;;;;;;;;;;;;;;5088929;28;19916;-69
2022/04/26 06:49:59;;;;;;;;;;;;;;;;;;5079778;28;19916;-69
2022/04/26 06:52:24;;;;;;;;;;;;;;;;;;5080974;28;20374;-69
2022/04/26 06:54:50;;;;;;;;;;;;;;;;;;5096995;28;19920;-70
2022/04/26 06:57:17;;;;;;;;;;;;;;;;;;5112724;28;20248;-67
2022/04/26 06:59:43;;;;;;;;;;;;;;;;;;5085698;28;20378;-67
2022/04/26 07:02:09;;;;;;;;;;;;;;;;;;5077380;28;19908;-68
2022/04/26 07:04:35;;;;;;;;;;;;;;;;;;5062336;28;19912;-69
2022/04/26 07:07:01;;;;;;;;;;;;;;;;;;5064786;28;19919;-69
2022/04/26 07:09:27;;;;;;;;;;;;;;;;;;5077138;28;19965;-67
2022/04/26 07:11:53;;;;;;;;;;;;;;;;;;5080710;28;19947;-71
2022/04/26 07:14:18;;;;;;;;;;;;;;;;;;5077190;28;19915;-67
2022/04/26 07:16:51;;;;;;;;;;;;;;;;;;5078052;28;19919;-70
2022/04/26 07:19:17;;;;;;;;;;;;;;;;;;5076253;28;19919;-70
2022/04/26 07:21:47;;;;;;;;;;;;;;;;;;5112500;28;19911;-68
2022/04/26 07:24:13;;;;;;;;;;;;;;;;;;5079749;28;20360;-71
2022/04/26 07:26:39;;;;;;;;;;;;;;;;;;5083992;28;19923;-71
2022/04/26 07:29:05;;;;;;;;;;;;;;;;;;5081040;28;19913;-69
2022/04/26 07:31:31;;;;;;;;;;;;;;;;;;5093272;28;19919;-70
2022/04/26 07:36:42;;;;;;;;;;;;;;;;;;5095737;28;19918;-71
2022/04/26 07:39:07;;;;;;;;;;;;;;;;;;5074923;28;20014;-70
2022/04/26 07:41:33;;;;;;;;;;;;;;;;;;5079147;28;19919;-68
2022/04/26 07:43:59;;;;;;;;;;;;;;;;;;5086739;28;19916;-70
2022/04/26 07:46:25;;;;;;;;;;;;;;;;;;5076947;28;19923;-70
2022/04/26 07:48:51;;;;;;;;;;;;;;;;;;5081797;28;19919;-70
2022/04/26 07:51:18;;;;;;;;;;;;;;;;;;5090133;28;19912;-71
2022/04/26 07:53:44;;;;;;;;;;;;;;;;;;5076059;28;19916;-70
2022/04/26 07:56:10;;;;;;;;;;;;;;;;;;5076262;28;19908;-71
2022/04/26 07:58:35;;;;;;;;;;;;;;;;;;5075813;28;19916;-71
2022/04/26 08:01:01;;;;;;;;;;;;;;;;;;5085066;28;19951;-70
2022/04/26 08:03:27;;;;;;;;;;;;;;;;;;5080372;28;19919;-68
2022/04/26 08:05:53;;;;;;;;;;;;;;;;;;5096445;28;19911;-69
2022/04/26 08:08:19;;;;;;;;;;;;;;;;;;5100984;28;19924;-68
2022/04/26 08:10:45;;;;;;;;;;;;;;;;;;5091252;28;19912;-68
2022/04/26 08:13:11;;;;;;;;;;;;;;;;;;5082336;28;19912;-71
2022/04/26 08:15:39;;;;;;;;;;;;;;;;;;5075785;28;19908;-67
2022/04/26 08:18:05;;;;;;;;;;;;;;;;;;5076115;28;19947;-66
2022/04/26 08:20:31;;;;;;;;;;;;;;;;;;5093645;28;19908;-69
2022/04/26 08:22:57;;;;;;;;;;;;;;;;;;5094056;28;19982;-69
2022/04/26 08:28:08;;;;;;;;;;;;;;;;;;5094765;28;19965;-69
2022/04/26 08:30:34;;;;;;;;;;;;;;;;;;5082597;28;19985;-69
2022/04/26 08:33:00;;;;;;;;;;;;;;;;;;5082109;28;19923;-69
2022/04/26 08:35:27;;;;;;;;;;;;;;;;;;5076704;28;19920;-69
2022/04/26 08:37:53;;;;;;;;;;;;;;;;;;5090668;28;19968;-69
2022/04/26 08:40:19;;;;;;;;;;;;;;;;;;5093823;28;19977;-69
2022/04/26 08:42:45;;;;;;;;;;;;;;;;;;5095853;28;20297;-69
2022/04/26 08:45:11;;;;;;;;;;;;;;;;;;5096009;28;19997;-69
2022/04/26 08:53:07;;;;;;;;;;;;;;;;;;5114050;28;19930;-69
2022/04/26 08:55:33;;;;;;;;;;;;;;;;;;5095854;28;20364;-69
2022/04/26 08:57:59;;;;;;;;;;;;;;;;;;5095896;28;19939;-69
2022/04/26 09:00:25;;;;;;;;;;;;;;;;;;5089641;28;19912;-69
2022/04/26 09:02:51;;;;;;;;;;;;;;;;;;5095481;28;19914;-68
2022/04/26 09:05:17;;;;;;;;;;;;;;;;;;5079351;28;19908;-68
2022/04/26 09:07:48;;;;;;;;;;;;;;;;;;5079154;28;19912;-69
2022/04/26 09:10:14;;;;;;;;;;;;;;;;;;5079202;28;20328;-68
2022/04/26 09:12:40;;;;;;;;;;;;;;;;;;5079119;28;19947;-68
2022/04/26 09:15:06;;;;;;;;;;;;;;;;;;5078444;28;20003;-68
2022/04/26 09:17:32;;;;;;;;;;;;;;;;;;5078636;28;19955;-68
2022/04/26 09:19:58;;;;;;;;;;;;;;;;;;5076768;28;20364;-69
2022/04/26 09:22:25;;;;;;;;;;;;;;;;;;5077578;28;19912;-68
2022/04/26 09:24:51;;;;;;;;;;;;;;;;;;5078986;28;20054;-68
2022/04/26 09:27:17;;;;;;;;;;;;;;;;;;5079117;28;20382;-68
2022/04/26 09:29:43;;;;;;;;;;;;;;;;;;5078788;28;19976;-68
2022/04/26 09:32:09;;;;;;;;;;;;;;;;;;5097307;28;19908;-68
2022/04/26 09:34:34;;;;;;;;;;;;;;;;;;5078882;28;20375;-69
2022/04/26 09:37:00;;;;;;;;;;;;;;;;;;5078981;28;19916;-69
2022/04/26 09:39:26;;;;;;;;;;;;;;;;;;5078413;28;20318;-72
2022/04/26 09:41:52;;;;;;;;;;;;;;;;;;5078771;28;19954;-66
2022/04/26 09:44:18;;;;;;;;;;;;;;;;;;5078758;28;20352;-67
2022/04/26 09:46:44;;;;;;;;;;;;;;;;;;5078765;28;19937;-67
2022/04/26 09:49:10;;;;;;;;;;;;;;;;;;5078253;28;20276;-66
2022/04/26 09:51:36;;;;;;;;;;;;;;;;;;5076257;28;20002;-67
2022/04/26 09:54:02;;;;;;;;;;;;;;;;;;5074320;28;19923;-67
2022/04/26 09:56:29;;;;;;;;;;;;;;;;;;5072389;28;19908;-67
2022/04/26 09:58:55;;;;;;;;;;;;;;;;;;5078148;28;19912;-67
2022/04/26 10:01:21;;;;;;;;;;;;;;;;;;5076211;28;20298;-67
2022/04/26 10:03:47;;;;;;;;;;;;;;;;;;5078110;28;19916;-67
2022/04/26 10:06:16;;;;;;;;;;;;;;;;;;5078449;28;19962;-66
2022/04/26 10:08:42;;;;;;;;;;;;;;;;;;5077820;28;19905;-67
2022/04/26 10:11:08;;;;;;;;;;;;;;;;;;5078486;28;20007;-67
2022/04/26 10:13:39;;;;;;;;;;;;;;;;;;5069290;28;20268;-67
2022/04/26 10:16:05;;;;;;;;;;;;;;;;;;5075456;28;19912;-66
2022/04/26 10:18:31;;;;;;;;;;;;;;;;;;5073803;28;20421;-67
2022/04/26 10:20:57;;;;;;;;;;;;;;;;;;5085150;28;20254;-65
2022/04/26 10:23:23;;;;;;;;;;;;;;;;;;5075811;28;19927;-66
2022/04/26 10:25:48;;;;;;;;;;;;;;;;;;5077975;28;19916;-66
2022/04/26 10:28:14;;;;;;;;;;;;;;;;;;5077932;28;20391;-65
2022/04/26 10:30:40;;;;;;;;;;;;;;;;;;5074526;28;19959;-66
2022/04/26 10:33:07;;;;;;;;;;;;;;;;;;5077825;28;20336;-66
2022/04/26 10:35:33;;;;;;;;;;;;;;;;;;5074844;28;20284;-65
2022/04/26 10:37:59;;;;;;;;;;;;;;;;;;5077037;28;19916;-66
2022/04/26 10:40:26;;;;;;;;;;;;;;;;;;5077244;28;20315;-66
2022/04/26 10:42:51;;;;;;;;;;;;;;;;;;5097278;22;19912;-78
2022/04/26 10:45:17;;;;;;;;;;;;;;;;;;5070955;28;19921;-76
2022/04/26 10:47:45;;;;;;;;;;;;;;;;;;5060040;28;19909;-76
2022/04/26 10:50:13;;;;;;;;;;;;;;;;;;5069647;28;20050;-77
2022/04/26 10:52:40;;;;;;;;;;;;;;;;;;5055066;28;19915;-78
2022/04/26 10:55:06;;;;;;;;;;;;;;;;;;5071734;28;20367;-75
2022/04/26 10:57:33;;;;;;;;;;;;;;;;;;5069083;28;19923;-77
2022/04/26 11:00:01;;;;;;;;;;;;;;;;;;5069510;28;19908;-77
2022/04/26 11:02:28;;;;;;;;;;;;;;;;;;5067581;28;19924;-78
2022/04/26 11:04:54;;;;;;;;;;;;;;;;;;5065552;28;20256;-76
2022/04/26 11:07:25;;;;;;;;;;;;;;;;;;5072214;28;19916;-77
2022/04/26 11:09:51;;;;;;;;;;;;;;;;;;5068862;28;19954;-76
2022/04/26 11:12:19;;;;;;;;;;;;;;;;;;5065182;28;19948;-76
2022/04/26 11:14:45;;;;;;;;;;;;;;;;;;5065946;28;20245;-77
2022/04/26 11:17:11;;;;;;;;;;;;;;;;;;5071274;28;19965;-78
2022/04/26 11:19:37;;;;;;;;;;;;;;;;;;5066551;28;19923;-76
2022/04/26 11:22:03;;;;;;;;;;;;;;;;;;5071326;28;19912;-77
2022/04/26 11:30:00;;;;;;;;;;;;;;;;;;5072313;28;20015;-78
2022/04/26 11:32:25;;;;;;;;;;;;;;;;;;5070047;28;19952;-76
2022/04/26 11:34:52;;;;;;;;;;;;;;;;;;5069161;28;20541;-79
2022/04/26 11:37:17;;;;;;;;;;;;;;;;;;5054697;28;19917;-77
2022/04/26 11:39:43;;;;;;;;;;;;;;;;;;5072920;28;19908;-76
2022/04/26 11:42:09;;;;;;;;;;;;;;;;;;5075295;28;20326;-76
2022/04/26 11:44:37;;;;;;;;;;;;;;;;;;5072460;28;19923;-77
2022/04/26 11:47:03;;;;;;;;;;;;;;;;;;5067197;28;20368;-77
2022/04/26 11:49:28;;;;;;;;;;;;;;;;;;5071030;28;19915;-76
2022/04/26 11:51:54;;;;;;;;;;;;;;;;;;5066939;28;19999;-77
2022/04/26 11:54:20;;;;;;;;;;;;;;;;;;5069812;28;19921;-77
2022/04/26 11:56:46;;;;;;;;;;;;;;;;;;5064830;28;19912;-77
2022/04/26 11:59:12;;;;;;;;;;;;;;;;;;5071155;28;20319;-76
2022/04/26 12:01:38;;;;;;;;;;;;;;;;;;5069899;28;19920;-76
2022/04/26 12:04:04;;;;;;;;;;;;;;;;;;5060773;28;19920;-77
2022/04/26 12:06:31;;;;;;;;;;;;;;;;;;5080692;28;19912;-76
2022/04/26 12:08:57;;;;;;;;;;;;;;;;;;5092150;28;19993;-77
2022/04/26 12:11:23;;;;;;;;;;;;;;;;;;5074038;28;20397;-76
2022/04/26 12:13:49;;;;;;;;;;;;;;;;;;5073475;28;19967;-77
2022/04/26 12:16:15;;;;;;;;;;;;;;;;;;5069296;28;19912;-75
2022/04/26 12:18:41;;;;;;;;;;;;;;;;;;5081676;28;20002;-76
2022/04/26 12:21:07;;;;;;;;;;;;;;;;;;5070725;28;19912;-75
2022/04/26 12:23:33;;;;;;;;;;;;;;;;;;5073556;28;20433;-75
2022/04/26 12:25:59;;;;;;;;;;;;;;;;;;5092108;28;20008;-75
2022/04/26 12:28:25;;;;;;;;;;;;;;;;;;5091662;28;19959;-75
2022/04/26 12:30:51;;;;;;;;;;;;;;;;;;5092001;28;19915;-75
2022/04/26 12:33:17;;;;;;;;;;;;;;;;;;5086900;28;19922;-75
2022/04/26 12:35:43;;;;;;;;;;;;;;;;;;5053626;28;20011;-75
2022/04/26 12:38:09;;;;;;;;;;;;;;;;;;5070970;28;19919;-75
2022/04/26 12:40:35;;;;;;;;;;;;;;;;;;5071247;28;20007;-75
2022/04/26 12:43:01;;;;;;;;;;;;;;;;;;5071148;28;19912;-75
2022/04/26 12:45:27;;;;;;;;;;;;;;;;;;5071511;28;19989;-75
2022/04/26 12:50:38;;;;;;;;;;;;;;;;;;5070975;28;20409;-75
2022/04/26 12:53:07;;;;;;;;;;;;;;;;;;5080209;28;19969;-75
2022/04/26 12:55:33;;;;;;;;;;;;;;;;;;5071278;28;19999;-75
2022/04/26 12:57:59;;;;;;;;;;;;;;;;;;5069405;28;20029;-75
2022/04/26 13:00:25;;;;;;;;;;;;;;;;;;5067198;28;20387;-75
2022/04/26 13:02:51;;;;;;;;;;;;;;;;;;5059978;28;19965;-75
2022/04/26 13:05:17;;;;;;;;;;;;;;;;;;5048428;28;19916;-75
2022/04/26 13:07:43;;;;;;;;;;;;;;;;;;5069305;28;19919;-75
2022/04/26 13:10:09;;;;;;;;;;;;;;;;;;5070386;28;19908;-75
2022/04/26 13:12:35;;;;;;;;;;;;;;;;;;5075291;28;19912;-75
2022/04/26 13:15:01;;;;;;;;;;;;;;;;;;5070774;28;20298;-75
2022/04/26 13:17:27;;;;;;;;;;;;;;;;;;5067514;28;19973;-75
2022/04/26 13:19:52;;;;;;;;;;;;;;;;;;5061147;28;20387;-75
2022/04/26 13:22:18;;;;;;;;;;;;;;;;;;5069806;28;19916;-75
2022/04/26 13:24:44;;;;;;;;;;;;;;;;;;5070331;28;19909;-75
2022/04/26 13:27:11;;;;;;;;;;;;;;;;;;5070940;28;19962;-75
2022/04/26 13:29:37;;;;;;;;;;;;;;;;;;5070638;28;19947;-76
2022/04/26 13:32:03;;;;;;;;;;;;;;;;;;5070898;28;19956;-75
2022/04/26 13:34:29;;;;;;;;;;;;;;;;;;5074279;28;20316;-76
2022/04/26 13:36:55;;;;;;;;;;;;;;;;;;5033353;28;19909;-74
2022/04/26 13:39:21;;;;;;;;;;;;;;;;;;5050691;28;19921;-75
2022/04/26 13:41:50;;;;;;;;;;;;;;;;;;5044551;28;20414;-76
2022/04/26 13:44:15;;;;;;;;;;;;;;;;;;5071808;28;19916;-75
2022/04/26 13:46:43;;;;;;;;;;;;;;;;;;5070875;28;20364;-75
2022/04/26 13:49:09;;;;;;;;;;;;;;;;;;5072860;28;20438;-75
2022/04/26 13:51:35;;;;;;;;;;;;;;;;;;5066034;28;20003;-75
2022/04/26 13:54:00;;;;;;;;;;;;;;;;;;5056608;28;19943;-75
2022/04/26 13:56:26;;;;;;;;;;;;;;;;;;5091614;28;19919;-75
2022/04/26 13:58:52;;;;;;;;;;;;;;;;;;5068055;28;19913;-76
2022/04/26 14:01:18;;;;;;;;;;;;;;;;;;5074081;28;20339;-75
2022/04/26 14:03:45;;;;;;;;;;;;;;;;;;5074163;28;20352;-75
2022/04/26 14:06:12;;;;;;;;;;;;;;;;;;5056099;28;19912;-75
2022/04/26 14:08:38;;;;;;;;;;;;;;;;;;5091303;28;19915;-75
2022/04/26 14:11:04;;;;;;;;;;;;;;;;;;5075883;28;19908;-75
2022/04/26 14:21:46;;;;;;;;;;;;;;;;;;5088681;28;20392;-77
2022/04/26 14:21:49;;;;;;;;;;;;;;;;;;5064876;28;20291;-76
2022/04/26 14:24:15;;;;;;;;;;;;;;;;;;5051919;28;20291;-76
2022/04/26 14:26:43;;;;;;;;;;;;;;;;;;5051867;28;19908;-76
2022/04/26 14:29:09;;;;;;;;;;;;;;;;;;5082925;28;20022;-76
2022/04/26 14:31:36;;;;;;;;;;;;;;;;;;5075182;28;20006;-77
2022/04/26 14:34:02;;;;;;;;;;;;;;;;;;5057059;28;19912;-76
2022/04/26 14:36:28;;;;;;;;;;;;;;;;;;5061697;28;20406;-76
2022/04/26 14:38:54;;;;;;;;;;;;;;;;;;5057161;28;20397;-77
2022/04/26 14:41:20;;;;;;;;;;;;;;;;;;5101438;28;19919;-77
2022/04/26 14:43:46;;;;;;;;;;;;;;;;;;5092199;28;19920;-79
2022/04/26 14:46:11;;;;;;;;;;;;;;;;;;5089755;28;19912;-79
2022/04/26 14:48:38;;;;;;;;;;;;;;;;;;5073565;28;20419;-80
2022/04/26 14:51:04;;;;;;;;;;;;;;;;;;5070967;28;19962;-77
2022/04/26 14:53:30;;;;;;;;;;;;;;;;;;5064547;28;19916;-77
2022/04/26 14:55:58;;;;;;;;;;;;;;;;;;5074903;28;19916;-78
2022/04/26 14:58:23;;;;;;;;;;;;;;;;;;5059547;28;19969;-77
2022/04/26 15:00:49;;;;;;;;;;;;;;;;;;5072269;28;20003;-77
2022/04/26 15:03:15;;;;;;;;;;;;;;;;;;5054399;28;19916;-76
2022/04/26 15:05:41;;;;;;;;;;;;;;;;;;5072931;28;20376;-76
2022/04/26 15:10:52;;;;;;;;;;;;;;;;;;5072540;28;19916;-77
2022/04/26 15:18:47;;;;;;;;;;;;;;;;;;5072512;28;19923;-77
2022/04/26 15:21:13;;;;;;;;;;;;;;;;;;5092205;28;19912;-76
2022/04/26 15:23:38;;;;;;;;;;;;;;;;;;5071677;28;19908;-76
2022/04/26 15:26:06;;;;;;;;;;;;;;;;;;5070178;28;20382;-76
2022/04/26 15:28:32;;;;;;;;;;;;;;;;;;5071528;28;19908;-76
2022/04/26 15:30:58;;;;;;;;;;;;;;;;;;5071909;28;20279;-78
2022/04/26 15:33:24;;;;;;;;;;;;;;;;;;5053518;28;20387;-78
2022/04/26 15:35:51;;;;;;;;;;;;;;;;;;5054407;28;19924;-75
2022/04/26 15:38:17;;;;;;;;;;;;;;;;;;5069764;28;19921;-75
2022/04/26 15:40:44;;;;;;;;;;;;;;;;;;5068323;28;19912;-76
2022/04/26 15:43:10;;;;;;;;;;;;;;;;;;5053729;28;20364;-76
2022/04/26 15:45:36;;;;;;;;;;;;;;;;;;5071690;28;19969;-80
2022/04/26 15:48:02;;;;;;;;;;;;;;;;;;5069169;28;19964;-78
2022/04/26 15:50:28;;;;;;;;;;;;;;;;;;5071234;28;19971;-78
2022/04/26 15:52:53;;;;;;;;;;;;;;;;;;5071943;28;20382;-78
2022/04/26 15:55:21;;;;;;;;;;;;;;;;;;5054624;28;19916;-82
2022/04/26 15:57:47;;;;;;;;;;;;;;;;;;5037806;28;19917;-80
2022/04/26 16:00:13;;;;;;;;;;;;;;;;;;5066304;28;19923;-82
2022/04/26 16:02:40;;;;;;;;;;;;;;;;;;5039919;28;19917;-81
2022/04/26 16:05:06;;;;;;;;;;;;;;;;;;5055030;28;20282;-79
2022/04/26 16:07:32;;;;;;;;;;;;;;;;;;5064841;28;20003;-78
2022/04/26 16:21:04;;;;;;;;;;;;;;;;;;5058215;28;19916;-77
2022/04/26 16:23:30;;;;;;;;;;;;;;;;;;5069498;28;19939;-76
2022/04/26 16:26:01;;;;;;;;;;;;;;;;;;5071494;28;19912;-76
2022/04/26 16:28:28;;;;;;;;;;;;;;;;;;5043648;28;19913;-75
2022/04/26 16:30:54;;;;;;;;;;;;;;;;;;5064404;28;19971;-76
2022/04/26 16:33:20;;;;;;;;;;;;;;;;;;5055294;28;19917;-75
2022/04/26 16:35:46;;;;;;;;;;;;;;;;;;5068663;28;19913;-76
2022/04/26 16:38:12;;;;;;;;;;;;;;;;;;5054570;28;20016;-77
2022/04/26 16:40:38;;;;;;;;;;;;;;;;;;5051209;28;20283;-75
2022/04/26 16:43:04;;;;;;;;;;;;;;;;;;5063262;28;19919;-75
2022/04/26 16:45:30;;;;;;;;;;;;;;;;;;5067287;28;19924;-75
2022/04/26 16:47:56;;;;;;;;;;;;;;;;;;5062292;28;19919;-76
2022/04/26 16:50:22;;;;;;;;;;;;;;;;;;5060830;28;19913;-75
2022/04/26 16:52:49;;;;;;;;;;;;;;;;;;5070176;28;20016;-75
2022/04/26 16:55:15;;;;;;;;;;;;;;;;;;5057266;28;20287;-75
2022/04/26 16:57:41;;;;;;;;;;;;;;;;;;5092379;22;20211;-76
2022/04/26 17:00:07;;;;;;;;;;;;;;;;;;5067133;28;19998;-76
2022/04/26 17:02:33;;;;;;;;;;;;;;;;;;5041911;28;19992;-76
2022/04/26 17:04:59;;;;;;;;;;;;;;;;;;5069506;28;19966;-76
2022/04/26 17:07:25;;;;;;;;;;;;;;;;;;5071192;28;19919;-76
2022/04/26 17:09:51;;;;;;;;;;;;;;;;;;5066745;28;19917;-76
2022/04/26 17:12:16;;;;;;;;;;;;;;;;;;5053312;28;19966;-76
2022/04/26 17:14:42;;;;;;;;;;;;;;;;;;5067082;28;19920;-76
2022/04/26 17:17:08;;;;;;;;;;;;;;;;;;5059922;28;20344;-76
2022/04/26 17:19:34;;;;;;;;;;;;;;;;;;5070896;28;19925;-77
2022/04/26 17:22:01;;;;;;;;;;;;;;;;;;5065048;28;19913;-76
2022/04/26 17:27:11;;;;;;;;;;;;;;;;;;5060742;28;19961;-77
2022/04/26 17:29:37;;;;;;;;;;;;;;;;;;5066585;28;20025;-76
2022/04/26 17:32:03;;;;;;;;;;;;;;;;;;5075159;28;20361;-77
2022/04/26 17:34:29;;;;;;;;;;;;;;;;;;5055164;28;19920;-76
2022/04/26 17:36:55;;;;;;;;;;;;;;;;;;5062091;28;20015;-75
2022/04/26 17:39:21;;;;;;;;;;;;;;;;;;5073373;28;19916;-75
2022/04/26 17:41:47;;;;;;;;;;;;;;;;;;5069890;28;19916;-75
2022/04/26 17:44:13;;;;;;;;;;;;;;;;;;5074658;28;19916;-75
2022/04/26 17:46:40;;;;;;;;;;;;;;;;;;5074726;28;19908;-75
2022/04/26 17:49:06;;;;;;;;;;;;;;;;;;5078786;28;19913;-75
2022/04/26 17:51:32;;;;;;;;;;;;;;;;;;5073824;28;19990;-75
2022/04/26 17:56:43;;;;;;;;;;;;;;;;;;5074128;28;19970;-74
2022/04/26 17:59:09;;;;;;;;;;;;;;;;;;5071304;28;20553;-74
2022/04/26 18:01:35;;;;;;;;;;;;;;;;;;5056109;28;20006;-74
2022/04/26 18:04:01;;;;;;;;;;;;;;;;;;5073916;28;19908;-75
2022/04/26 18:06:27;;;;;;;;;;;;;;;;;;5057075;28;20363;-74
2022/04/26 18:08:53;;;;;;;;;;;;;;;;;;5073446;28;19961;-74
2022/04/26 18:11:19;;;;;;;;;;;;;;;;;;5074030;28;19908;-74
2022/04/26 18:13:47;;;;;;;;;;;;;;;;;;5063408;28;19939;-75
2022/04/26 18:16:13;;;;;;;;;;;;;;;;;;5054203;28;19951;-73
2022/04/26 18:18:39;;;;;;;;;;;;;;;;;;5040999;28;19967;-73
2022/04/26 18:21:05;;;;;;;;;;;;;;;;;;5072898;28;19978;-75
2022/04/26 18:23:32;;;;;;;;;;;;;;;;;;5072660;28;19909;-75
2022/04/26 18:26:14;;;;;;;;;;;;;;;;;;5049085;28;19912;-75
2022/04/26 18:28:40;;;;;;;;;;;;;;;;;;5044113;28;19913;-74
2022/04/26 18:31:06;;;;;;;;;;;;;;;;;;5072050;28;20378;-74
2022/04/26 18:33:32;;;;;;;;;;;;;;;;;;5073458;28;19916;-74
2022/04/26 18:35:58;;;;;;;;;;;;;;;;;;5055002;28;19908;-74
2022/04/26 18:38:24;;;;;;;;;;;;;;;;;;5073423;28;20379;-74
2022/04/26 18:40:50;;;;;;;;;;;;;;;;;;5053229;28;19912;-74
2022/04/26 18:43:16;;;;;;;;;;;;;;;;;;5072569;28;19991;-75
2022/04/26 18:45:42;;;;;;;;;;;;;;;;;;5063433;28;20058;-74
2022/04/26 18:48:08;;;;;;;;;;;;;;;;;;5051298;28;20018;-75
2022/04/26 18:50:35;;;;;;;;;;;;;;;;;;5054138;28;20298;-75
2022/04/26 18:53:01;;;;;;;;;;;;;;;;;;5055372;28;19916;-75
2022/04/26 18:55:27;;;;;;;;;;;;;;;;;;5073476;28;19912;-75
2022/04/26 18:57:52;;;;;;;;;;;;;;;;;;5068235;28;19967;-75
2022/04/26 19:00:18;;;;;;;;;;;;;;;;;;5045418;28;20004;-74
2022/04/26 19:02:44;;;;;;;;;;;;;;;;;;5071030;28;19913;-74
2022/04/26 19:05:10;;;;;;;;;;;;;;;;;;5072753;28;19912;-76
2022/04/26 19:07:36;;;;;;;;;;;;;;;;;;5072922;28;19966;-74
2022/04/26 19:12:47;;;;;;;;;;;;;;;;;;5071613;28;20324;-74
2022/04/26 19:15:12;;;;;;;;;;;;;;;;;;5072680;28;19908;-74
2022/04/26 19:17:38;;;;;;;;;;;;;;;;;;5071825;28;19955;-74
2022/04/26 19:20:04;;;;;;;;;;;;;;;;;;5072359;28;20140;-74
2022/04/26 19:22:30;;;;;;;;;;;;;;;;;;5062925;28;20383;-75
2022/04/26 19:24:57;;;;;;;;;;;;;;;;;;5053265;28;19909;-74
2022/04/26 19:27:23;;;;;;;;;;;;;;;;;;5045594;28;19913;-75
2022/04/26 19:29:50;;;;;;;;;;;;;;;;;;5067090;28;19920;-75
2022/04/26 19:32:16;;;;;;;;;;;;;;;;;;5062206;28;19913;-76
2022/04/26 19:34:42;;;;;;;;;;;;;;;;;;5044488;28;20330;-76
2022/04/26 19:37:08;;;;;;;;;;;;;;;;;;5072254;28;19908;-76
2022/04/26 19:39:34;;;;;;;;;;;;;;;;;;5071976;28;19919;-76
2022/04/26 19:42:00;;;;;;;;;;;;;;;;;;5067696;28;19916;-75
2022/04/26 19:44:25;;;;;;;;;;;;;;;;;;5071928;28;19920;-76
2022/04/26 19:46:58;;;;;;;;;;;;;;;;;;5051700;28;19919;-76
2022/04/26 19:49:24;;;;;;;;;;;;;;;;;;5075367;28;19916;-76
2022/04/26 19:51:50;;;;;;;;;;;;;;;;;;5057850;28;19923;-76
2022/04/26 19:54:16;;;;;;;;;;;;;;;;;;5064589;28;19912;-76
2022/04/26 19:56:44;;;;;;;;;;;;;;;;;;5063172;28;20257;-76
2022/04/26 19:59:10;;;;;;;;;;;;;;;;;;5057018;28;19964;-76
2022/04/26 20:01:36;;;;;;;;;;;;;;;;;;5052163;28;19955;-76
2022/04/26 20:04:02;;;;;;;;;;;;;;;;;;5052255;28;20368;-77
2022/04/26 20:06:27;;;;;;;;;;;;;;;;;;5072989;28;19912;-76
2022/04/26 20:08:53;;;;;;;;;;;;;;;;;;5056937;28;20279;-76
2022/04/26 20:11:20;;;;;;;;;;;;;;;;;;5066535;28;19912;-77
2022/04/26 20:13:46;;;;;;;;;;;;;;;;;;5072236;28;19919;-76
2022/04/26 20:16:13;;;;;;;;;;;;;;;;;;5072012;28;19999;-76
2022/04/26 20:18:39;;;;;;;;;;;;;;;;;;5071128;28;19913;-77
2022/04/26 20:21:06;;;;;;;;;;;;;;;;;;5070860;28;19923;-75
2022/04/26 20:23:33;;;;;;;;;;;;;;;;;;5071580;28;19943;-77
2022/04/26 20:31:29;;;;;;;;;;;;;;;;;;5072180;28;19948;-77
2022/04/26 20:33:54;;;;;;;;;;;;;;;;;;5071520;28;19913;-75
2022/04/26 20:36:20;;;;;;;;;;;;;;;;;;5071719;28;20080;-77
2022/04/26 20:38:46;;;;;;;;;;;;;;;;;;5071071;28;19912;-76
2022/04/26 20:41:12;;;;;;;;;;;;;;;;;;5053469;28;19956;-76
2022/04/26 20:43:38;;;;;;;;;;;;;;;;;;5071766;28;19908;-76
2022/04/26 20:46:04;;;;;;;;;;;;;;;;;;5053525;28;20306;-77
2022/04/26 20:48:30;;;;;;;;;;;;;;;;;;5053550;28;20264;-76
2022/04/26 20:50:56;;;;;;;;;;;;;;;;;;5071521;28;19962;-76
2022/04/26 20:53:22;;;;;;;;;;;;;;;;;;5053632;28;19913;-77
2022/04/26 20:55:48;;;;;;;;;;;;;;;;;;5071424;28;19908;-76
2022/04/26 20:58:15;;;;;;;;;;;;;;;;;;5071486;28;19986;-76
2022/04/26 21:00:41;;;;;;;;;;;;;;;;;;5075326;28;20351;-76
2022/04/26 21:03:07;;;;;;;;;;;;;;;;;;5057601;28;19944;-76
2022/04/26 21:05:33;;;;;;;;;;;;;;;;;;5075545;28;19915;-76
2022/04/26 21:07:59;;;;;;;;;;;;;;;;;;5075150;28;20297;-76
2022/04/26 21:10:25;;;;;;;;;;;;;;;;;;5075063;28;20419;-76
2022/04/26 21:15:35;;;;;;;;;;;;;;;;;;5075459;28;19962;-77
2022/04/26 21:18:01;;;;;;;;;;;;;;;;;;5056941;28;19917;-77